sensor_id;sensor_type;location;lat;lon;timestamp;temperature;humidity
42979;DHT22;28616;44.746;19.678;2023-04-25T00:02:33;13.20;99.90
42979;DHT22;28616;44.746;19.678;2023-04-25T00:05:46;13.10;99.90
42979;DHT22;28616;44.746;19.678;2023-04-25T00:11:28;13.20;99.90
42979;DHT22;28616;44.746;19.678;2023-04-25T00:17:36;13.20;99.90
42979;DHT22;28616;44.746;19.678;2023-04-25T00:20:30;13.20;99.90
42979;DHT22;28616;44.746;19.678;2023-04-25T00:26:31;13.20;99.90
42979;DHT22;28616;44.746;19.678;2023-04-25T00:29:14;13.20;99.90
42979;DHT22;28616;44.746;19.678;2023-04-25T00:31:48;13.20;99.90
42979;DHT22;28616;44.746;19.678;2023-04-25T00:34:13;13.20;99.90
42979;DHT22;28616;44.746;19.678;2023-04-25T00:36:39;13.20;99.90
42979;DHT22;28616;44.746;19.678;2023-04-25T00:39:05;13.20;99.90
42979;DHT22;28616;44.746;19.678;2023-04-25T00:41:32;13.20;99.90
42979;DHT22;28616;44.746;19.678;2023-04-25T00:43:59;13.20;99.90
42979;DHT22;28616;44.746;19.678;2023-04-25T00:46:26;13.20;99.90
42979;DHT22;28616;44.746;19.678;2023-04-25T00:48:55;13.20;99.90
42979;DHT22;28616;44.746;19.678;2023-04-25T00:51:21;13.20;99.90
42979;DHT22;28616;44.746;19.678;2023-04-25T00:53:48;13.20;99.90
42979;DHT22;28616;44.746;19.678;2023-04-25T00:56:15;13.10;99.90
42979;DHT22;28616;44.746;19.678;2023-04-25T00:58:42;13.10;99.90
42979;DHT22;28616;44.746;19.678;2023-04-25T01:01:08;13.10;99.90
42979;DHT22;28616;44.746;19.678;2023-04-25T01:03:38;13.00;99.90
42979;DHT22;28616;44.746;19.678;2023-04-25T01:06:08;13.00;99.90
42979;DHT22;28616;44.746;19.678;2023-04-25T01:08:35;13.00;99.90
42979;DHT22;28616;44.746;19.678;2023-04-25T01:11:01;12.90;99.90
42979;DHT22;28616;44.746;19.678;2023-04-25T01:13:27;12.90;99.90
42979;DHT22;28616;44.746;19.678;2023-04-25T01:15:53;12.90;99.90
42979;DHT22;28616;44.746;19.678;2023-04-25T01:18:19;12.80;99.90
42979;DHT22;28616;44.746;19.678;2023-04-25T01:20:46;12.90;99.90
42979;DHT22;28616;44.746;19.678;2023-04-25T01:23:13;12.80;99.90
42979;DHT22;28616;44.746;19.678;2023-04-25T01:25:39;12.80;99.90
42979;DHT22;28616;44.746;19.678;2023-04-25T01:28:05;12.80;99.90
42979;DHT22;28616;44.746;19.678;2023-04-25T01:30:31;12.80;99.90
42979;DHT22;28616;44.746;19.678;2023-04-25T01:32:57;12.70;99.90
42979;DHT22;28616;44.746;19.678;2023-04-25T01:35:24;12.70;99.90
42979;DHT22;28616;44.746;19.678;2023-04-25T01:37:51;12.70;99.90
42979;DHT22;28616;44.746;19.678;2023-04-25T01:40:17;12.70;99.90
42979;DHT22;28616;44.746;19.678;2023-04-25T01:42:45;12.70;99.90
42979;DHT22;28616;44.746;19.678;2023-04-25T01:45:11;12.70;99.90
42979;DHT22;28616;44.746;19.678;2023-04-25T01:47:40;12.70;99.90
42979;DHT22;28616;44.746;19.678;2023-04-25T01:50:08;12.60;99.90
42979;DHT22;28616;44.746;19.678;2023-04-25T01:52:35;12.70;99.90
42979;DHT22;28616;44.746;19.678;2023-04-25T01:55:05;12.60;99.90
42979;DHT22;28616;44.746;19.678;2023-04-25T01:57:31;12.60;99.90
42979;DHT22;28616;44.746;19.678;2023-04-25T02:00:00;12.60;99.90
42979;DHT22;28616;44.746;19.678;2023-04-25T02:02:26;12.60;99.90
42979;DHT22;28616;44.746;19.678;2023-04-25T02:04:52;12.60;99.90
42979;DHT22;28616;44.746;19.678;2023-04-25T02:07:20;12.60;99.90
42979;DHT22;28616;44.746;19.678;2023-04-25T02:09:46;12.50;99.90
42979;DHT22;28616;44.746;19.678;2023-04-25T02:12:12;12.60;99.90
42979;DHT22;28616;44.746;19.678;2023-04-25T02:14:37;12.60;99.90
42979;DHT22;28616;44.746;19.678;2023-04-25T02:17:03;12.60;99.90
42979;DHT22;28616;44.746;19.678;2023-04-25T02:19:29;12.60;99.90
42979;DHT22;28616;44.746;19.678;2023-04-25T02:21:55;12.50;99.90
42979;DHT22;28616;44.746;19.678;2023-04-25T02:24:22;12.50;99.90
42979;DHT22;28616;44.746;19.678;2023-04-25T02:26:48;12.50;99.90
42979;DHT22;28616;44.746;19.678;2023-04-25T02:29:15;12.60;99.90
42979;DHT22;28616;44.746;19.678;2023-04-25T02:31:42;12.50;99.90
42979;DHT22;28616;44.746;19.678;2023-04-25T02:34:08;12.50;99.90
42979;DHT22;28616;44.746;19.678;2023-04-25T02:36:33;12.50;99.90
42979;DHT22;28616;44.746;19.678;2023-04-25T02:39:01;12.50;99.90
42979;DHT22;28616;44.746;19.678;2023-04-25T02:41:28;12.50;99.90
42979;DHT22;28616;44.746;19.678;2023-04-25T02:43:54;12.50;99.90
42979;DHT22;28616;44.746;19.678;2023-04-25T02:46:20;12.50;99.90
42979;DHT22;28616;44.746;19.678;2023-04-25T02:48:46;12.50;99.90
42979;DHT22;28616;44.746;19.678;2023-04-25T02:51:12;12.50;99.90
42979;DHT22;28616;44.746;19.678;2023-04-25T02:53:38;12.50;99.90
42979;DHT22;28616;44.746;19.678;2023-04-25T02:56:04;12.50;99.90
42979;DHT22;28616;44.746;19.678;2023-04-25T02:58:29;12.50;99.90
42979;DHT22;28616;44.746;19.678;2023-04-25T03:00:55;12.50;99.90
42979;DHT22;28616;44.746;19.678;2023-04-25T03:03:21;12.60;99.90
42979;DHT22;28616;44.746;19.678;2023-04-25T03:05:49;12.50;99.90
42979;DHT22;28616;44.746;19.678;2023-04-25T03:08:16;12.50;99.90
42979;DHT22;28616;44.746;19.678;2023-04-25T03:10:42;12.50;99.90
42979;DHT22;28616;44.746;19.678;2023-04-25T03:13:07;12.50;99.90
42979;DHT22;28616;44.746;19.678;2023-04-25T03:15:34;12.40;99.90
42979;DHT22;28616;44.746;19.678;2023-04-25T03:18:00;12.40;99.90
42979;DHT22;28616;44.746;19.678;2023-04-25T03:20:26;12.30;99.90
42979;DHT22;28616;44.746;19.678;2023-04-25T03:22:51;12.30;99.90
42979;DHT22;28616;44.746;19.678;2023-04-25T03:25:17;12.30;99.90
42979;DHT22;28616;44.746;19.678;2023-04-25T03:27:43;12.20;99.90
42979;DHT22;28616;44.746;19.678;2023-04-25T03:30:09;12.20;99.90
42979;DHT22;28616;44.746;19.678;2023-04-25T03:32:35;12.10;99.90
42979;DHT22;28616;44.746;19.678;2023-04-25T03:35:01;12.10;99.90
42979;DHT22;28616;44.746;19.678;2023-04-25T03:37:27;12.10;99.90
42979;DHT22;28616;44.746;19.678;2023-04-25T03:39:55;12.10;99.90
42979;DHT22;28616;44.746;19.678;2023-04-25T03:42:21;12.10;99.90
42979;DHT22;28616;44.746;19.678;2023-04-25T03:44:49;12.00;99.90
42979;DHT22;28616;44.746;19.678;2023-04-25T03:47:15;12.00;99.90
42979;DHT22;28616;44.746;19.678;2023-04-25T03:49:41;12.00;99.90
42979;DHT22;28616;44.746;19.678;2023-04-25T03:52:07;12.00;99.90
42979;DHT22;28616;44.746;19.678;2023-04-25T03:54:38;12.00;99.90
42979;DHT22;28616;44.746;19.678;2023-04-25T03:57:09;11.90;99.90
42979;DHT22;28616;44.746;19.678;2023-04-25T03:59:35;11.90;99.90
42979;DHT22;28616;44.746;19.678;2023-04-25T04:02:04;11.90;99.90
42979;DHT22;28616;44.746;19.678;2023-04-25T04:04:32;11.80;99.90
42979;DHT22;28616;44.746;19.678;2023-04-25T04:06:58;11.80;99.90
42979;DHT22;28616;44.746;19.678;2023-04-25T04:09:24;11.70;99.90
42979;DHT22;28616;44.746;19.678;2023-04-25T04:11:50;11.70;99.90
42979;DHT22;28616;44.746;19.678;2023-04-25T04:14:19;11.70;99.90
42979;DHT22;28616;44.746;19.678;2023-04-25T04:16:45;11.60;99.90
42979;DHT22;28616;44.746;19.678;2023-04-25T04:19:10;11.50;99.90
42979;DHT22;28616;44.746;19.678;2023-04-25T04:21:36;11.50;99.90
42979;DHT22;28616;44.746;19.678;2023-04-25T04:24:07;11.50;99.90
42979;DHT22;28616;44.746;19.678;2023-04-25T04:26:36;11.50;99.90
42979;DHT22;28616;44.746;19.678;2023-04-25T04:29:02;11.50;99.90
42979;DHT22;28616;44.746;19.678;2023-04-25T04:31:29;11.50;99.90
42979;DHT22;28616;44.746;19.678;2023-04-25T04:33:55;11.50;99.90
42979;DHT22;28616;44.746;19.678;2023-04-25T04:36:21;11.50;99.90
42979;DHT22;28616;44.746;19.678;2023-04-25T04:38:48;11.40;99.90
42979;DHT22;28616;44.746;19.678;2023-04-25T04:41:17;11.40;99.90
42979;DHT22;28616;44.746;19.678;2023-04-25T04:43:45;11.30;99.90
42979;DHT22;28616;44.746;19.678;2023-04-25T04:46:10;11.40;99.90
42979;DHT22;28616;44.746;19.678;2023-04-25T04:48:40;11.30;99.90
42979;DHT22;28616;44.746;19.678;2023-04-25T04:51:06;11.40;99.90
42979;DHT22;28616;44.746;19.678;2023-04-25T04:53:32;11.30;99.90
42979;DHT22;28616;44.746;19.678;2023-04-25T04:56:01;11.30;99.90
42979;DHT22;28616;44.746;19.678;2023-04-25T04:58:26;11.30;99.90
42979;DHT22;28616;44.746;19.678;2023-04-25T05:00:55;11.20;99.90
42979;DHT22;28616;44.746;19.678;2023-04-25T05:03:21;11.20;99.90
42979;DHT22;28616;44.746;19.678;2023-04-25T05:05:49;11.10;99.90
42979;DHT22;28616;44.746;19.678;2023-04-25T05:08:15;11.10;99.90
42979;DHT22;28616;44.746;19.678;2023-04-25T05:10:40;11.10;99.90
42979;DHT22;28616;44.746;19.678;2023-04-25T05:13:07;11.00;99.90
42979;DHT22;28616;44.746;19.678;2023-04-25T05:15:33;11.10;99.90
42979;DHT22;28616;44.746;19.678;2023-04-25T05:17:58;11.00;99.90
42979;DHT22;28616;44.746;19.678;2023-04-25T05:20:27;11.00;99.90
42979;DHT22;28616;44.746;19.678;2023-04-25T05:22:53;11.00;99.90
42979;DHT22;28616;44.746;19.678;2023-04-25T05:25:19;10.90;99.90
42979;DHT22;28616;44.746;19.678;2023-04-25T05:27:45;11.00;99.90
42979;DHT22;28616;44.746;19.678;2023-04-25T05:30:11;10.90;99.90
42979;DHT22;28616;44.746;19.678;2023-04-25T05:32:37;10.90;99.90
42979;DHT22;28616;44.746;19.678;2023-04-25T05:35:03;10.80;99.90
42979;DHT22;28616;44.746;19.678;2023-04-25T05:37:28;10.90;99.90
42979;DHT22;28616;44.746;19.678;2023-04-25T05:39:56;10.90;99.90
42979;DHT22;28616;44.746;19.678;2023-04-25T05:42:22;10.90;99.90
42979;DHT22;28616;44.746;19.678;2023-04-25T05:44:48;10.90;99.90
42979;DHT22;28616;44.746;19.678;2023-04-25T05:47:13;10.90;99.90
42979;DHT22;28616;44.746;19.678;2023-04-25T05:49:39;10.90;99.90
42979;DHT22;28616;44.746;19.678;2023-04-25T05:52:05;10.80;99.90
42979;DHT22;28616;44.746;19.678;2023-04-25T05:54:31;10.90;99.90
42979;DHT22;28616;44.746;19.678;2023-04-25T05:56:57;10.90;99.90
42979;DHT22;28616;44.746;19.678;2023-04-25T05:59:23;10.90;99.90
42979;DHT22;28616;44.746;19.678;2023-04-25T06:01:49;11.00;99.90
42979;DHT22;28616;44.746;19.678;2023-04-25T06:04:14;11.00;99.90
42979;DHT22;28616;44.746;19.678;2023-04-25T06:06:40;11.00;99.90
42979;DHT22;28616;44.746;19.678;2023-04-25T06:09:06;11.00;99.90
42979;DHT22;28616;44.746;19.678;2023-04-25T06:11:32;11.00;99.90
42979;DHT22;28616;44.746;19.678;2023-04-25T06:13:58;10.90;99.90
42979;DHT22;28616;44.746;19.678;2023-04-25T06:16:24;11.00;99.90
42979;DHT22;28616;44.746;19.678;2023-04-25T06:18:51;11.00;99.90
42979;DHT22;28616;44.746;19.678;2023-04-25T06:21:17;10.90;99.90
42979;DHT22;28616;44.746;19.678;2023-04-25T06:23:42;10.90;99.90
42979;DHT22;28616;44.746;19.678;2023-04-25T06:26:08;11.00;99.90
42979;DHT22;28616;44.746;19.678;2023-04-25T06:28:34;11.10;99.90
42979;DHT22;28616;44.746;19.678;2023-04-25T06:31:00;11.10;99.90
42979;DHT22;28616;44.746;19.678;2023-04-25T06:33:26;11.10;99.90
42979;DHT22;28616;44.746;19.678;2023-04-25T06:35:52;11.20;99.90
42979;DHT22;28616;44.746;19.678;2023-04-25T06:38:18;11.20;99.90
42979;DHT22;28616;44.746;19.678;2023-04-25T06:40:44;11.30;99.90
42979;DHT22;28616;44.746;19.678;2023-04-25T06:43:09;11.30;99.90
42979;DHT22;28616;44.746;19.678;2023-04-25T06:45:36;11.30;99.90
42979;DHT22;28616;44.746;19.678;2023-04-25T06:48:01;11.40;99.90
42979;DHT22;28616;44.746;19.678;2023-04-25T06:50:27;11.40;99.90
42979;DHT22;28616;44.746;19.678;2023-04-25T06:52:53;11.50;99.90
42979;DHT22;28616;44.746;19.678;2023-04-25T06:55:19;11.50;99.90
42979;DHT22;28616;44.746;19.678;2023-04-25T06:57:45;11.50;99.90
42979;DHT22;28616;44.746;19.678;2023-04-25T07:00:11;11.50;99.90
42979;DHT22;28616;44.746;19.678;2023-04-25T07:02:37;11.50;99.90
42979;DHT22;28616;44.746;19.678;2023-04-25T07:05:03;11.60;99.90
42979;DHT22;28616;44.746;19.678;2023-04-25T07:07:30;11.70;99.90
42979;DHT22;28616;44.746;19.678;2023-04-25T07:09:56;11.80;99.90
42979;DHT22;28616;44.746;19.678;2023-04-25T07:12:22;11.80;99.90
42979;DHT22;28616;44.746;19.678;2023-04-25T07:14:48;11.80;99.90
42979;DHT22;28616;44.746;19.678;2023-04-25T07:17:13;11.90;99.90
42979;DHT22;28616;44.746;19.678;2023-04-25T07:19:39;12.00;99.90
42979;DHT22;28616;44.746;19.678;2023-04-25T07:22:06;12.00;99.90
42979;DHT22;28616;44.746;19.678;2023-04-25T07:24:32;12.10;99.90
42979;DHT22;28616;44.746;19.678;2023-04-25T07:29:41;12.30;99.90
42979;DHT22;28616;44.746;19.678;2023-04-25T07:32:07;12.30;99.90
42979;DHT22;28616;44.746;19.678;2023-04-25T07:34:33;12.50;99.90
42979;DHT22;28616;44.746;19.678;2023-04-25T07:37:02;12.50;99.90
42979;DHT22;28616;44.746;19.678;2023-04-25T07:39:28;12.60;99.90
42979;DHT22;28616;44.746;19.678;2023-04-25T07:41:54;12.70;99.90
42979;DHT22;28616;44.746;19.678;2023-04-25T07:44:20;12.80;99.90
42979;DHT22;28616;44.746;19.678;2023-04-25T07:46:46;12.90;99.90
42979;DHT22;28616;44.746;19.678;2023-04-25T07:49:11;13.10;99.90
42979;DHT22;28616;44.746;19.678;2023-04-25T07:51:37;13.20;99.90
42979;DHT22;28616;44.746;19.678;2023-04-25T07:54:03;13.40;99.90
42979;DHT22;28616;44.746;19.678;2023-04-25T07:56:30;13.40;99.90
42979;DHT22;28616;44.746;19.678;2023-04-25T07:58:56;13.60;99.90
42979;DHT22;28616;44.746;19.678;2023-04-25T08:01:22;13.80;99.90
42979;DHT22;28616;44.746;19.678;2023-04-25T08:03:48;13.90;99.90
42979;DHT22;28616;44.746;19.678;2023-04-25T08:06:14;13.90;99.90
42979;DHT22;28616;44.746;19.678;2023-04-25T08:08:40;14.00;99.90
42979;DHT22;28616;44.746;19.678;2023-04-25T08:11:47;14.10;99.90
42979;DHT22;28616;44.746;19.678;2023-04-25T08:14:14;14.10;99.90
42979;DHT22;28616;44.746;19.678;2023-04-25T08:16:40;14.30;99.90
42979;DHT22;28616;44.746;19.678;2023-04-25T08:19:06;14.70;99.90
42979;DHT22;28616;44.746;19.678;2023-04-25T08:21:31;14.70;99.90
42979;DHT22;28616;44.746;19.678;2023-04-25T08:23:58;14.50;99.90
42979;DHT22;28616;44.746;19.678;2023-04-25T08:26:24;14.40;99.90
42979;DHT22;28616;44.746;19.678;2023-04-25T08:28:50;14.70;99.90
42979;DHT22;28616;44.746;19.678;2023-04-25T08:31:16;15.10;99.90
42979;DHT22;28616;44.746;19.678;2023-04-25T08:33:43;15.30;99.90
42979;DHT22;28616;44.746;19.678;2023-04-25T08:36:09;15.30;99.90
42979;DHT22;28616;44.746;19.678;2023-04-25T08:38:35;15.70;99.90
42979;DHT22;28616;44.746;19.678;2023-04-25T08:41:02;15.90;99.90
42979;DHT22;28616;44.746;19.678;2023-04-25T08:43:29;16.10;99.30
42979;DHT22;28616;44.746;19.678;2023-04-25T08:45:59;16.30;96.40
42979;DHT22;28616;44.746;19.678;2023-04-25T08:48:27;16.20;93.70
42979;DHT22;28616;44.746;19.678;2023-04-25T08:50:56;16.80;96.20
42979;DHT22;28616;44.746;19.678;2023-04-25T08:53:25;16.70;94.40
42979;DHT22;28616;44.746;19.678;2023-04-25T08:55:54;16.20;93.90
42979;DHT22;28616;44.746;19.678;2023-04-25T08:58:23;16.30;95.40
42979;DHT22;28616;44.746;19.678;2023-04-25T09:00:57;16.40;93.40
42979;DHT22;28616;44.746;19.678;2023-04-25T09:03:26;16.10;91.60
42979;DHT22;28616;44.746;19.678;2023-04-25T09:05:52;16.20;93.70
42979;DHT22;28616;44.746;19.678;2023-04-25T09:08:18;16.30;95.30
42979;DHT22;28616;44.746;19.678;2023-04-25T09:10:44;16.10;95.30
42979;DHT22;28616;44.746;19.678;2023-04-25T09:13:12;16.20;93.60
42979;DHT22;28616;44.746;19.678;2023-04-25T09:15:50;15.90;93.40
42979;DHT22;28616;44.746;19.678;2023-04-25T09:18:24;15.70;95.50
42979;DHT22;28616;44.746;19.678;2023-04-25T09:20:54;15.40;94.10
42979;DHT22;28616;44.746;19.678;2023-04-25T09:23:23;16.00;93.80
42979;DHT22;28616;44.746;19.678;2023-04-25T09:25:51;16.30;94.40
42979;DHT22;28616;44.746;19.678;2023-04-25T09:28:23;16.50;93.40
42979;DHT22;28616;44.746;19.678;2023-04-25T09:30:55;16.60;93.00
42979;DHT22;28616;44.746;19.678;2023-04-25T09:35:04;16.20;90.40
42979;DHT22;28616;44.746;19.678;2023-04-25T09:37:31;16.00;91.70
42979;DHT22;28616;44.746;19.678;2023-04-25T09:39:58;16.00;91.90
42979;DHT22;28616;44.746;19.678;2023-04-25T09:42:27;16.10;91.00
42979;DHT22;28616;44.746;19.678;2023-04-25T09:44:55;16.10;92.00
42979;DHT22;28616;44.746;19.678;2023-04-25T09:47:23;15.70;91.50
42979;DHT22;28616;44.746;19.678;2023-04-25T09:49:50;15.60;92.70
42979;DHT22;28616;44.746;19.678;2023-04-25T09:52:21;15.40;91.70
42979;DHT22;28616;44.746;19.678;2023-04-25T09:54:49;15.20;92.50
42979;DHT22;28616;44.746;19.678;2023-04-25T09:57:20;15.20;92.90
42979;DHT22;28616;44.746;19.678;2023-04-25T09:59:46;15.50;92.60
42979;DHT22;28616;44.746;19.678;2023-04-25T10:02:17;15.90;93.40
42979;DHT22;28616;44.746;19.678;2023-04-25T10:04:47;16.50;92.30
42979;DHT22;28616;44.746;19.678;2023-04-25T10:07:18;17.10;92.40
42979;DHT22;28616;44.746;19.678;2023-04-25T10:09:48;17.00;84.00
42979;DHT22;28616;44.746;19.678;2023-04-25T10:12:16;17.00;80.00
42979;DHT22;28616;44.746;19.678;2023-04-25T10:14:43;16.90;80.80
42979;DHT22;28616;44.746;19.678;2023-04-25T10:17:10;17.10;81.70
42979;DHT22;28616;44.746;19.678;2023-04-25T10:19:37;17.40;83.00
42979;DHT22;28616;44.746;19.678;2023-04-25T10:22:13;18.00;81.70
42979;DHT22;28616;44.746;19.678;2023-04-25T10:24:40;17.90;76.60
42979;DHT22;28616;44.746;19.678;2023-04-25T10:27:07;17.90;76.30
42979;DHT22;28616;44.746;19.678;2023-04-25T10:29:34;18.00;77.70
42979;DHT22;28616;44.746;19.678;2023-04-25T10:32:00;17.80;75.00
42979;DHT22;28616;44.746;19.678;2023-04-25T10:34:44;17.70;75.00
42979;DHT22;28616;44.746;19.678;2023-04-25T10:37:13;17.70;74.70
42979;DHT22;28616;44.746;19.678;2023-04-25T10:39:46;18.30;77.10
42979;DHT22;28616;44.746;19.678;2023-04-25T10:42:12;18.80;71.20
42979;DHT22;28616;44.746;19.678;2023-04-25T10:44:38;18.40;72.00
42979;DHT22;28616;44.746;19.678;2023-04-25T10:47:07;17.90;68.80
42979;DHT22;28616;44.746;19.678;2023-04-25T10:49:42;17.40;71.90
42979;DHT22;28616;44.746;19.678;2023-04-25T10:52:27;17.00;72.40
42979;DHT22;28616;44.746;19.678;2023-04-25T10:54:57;16.70;71.20
42979;DHT22;28616;44.746;19.678;2023-04-25T10:57:46;16.50;74.60
42979;DHT22;28616;44.746;19.678;2023-04-25T11:00:17;16.60;73.60
42979;DHT22;28616;44.746;19.678;2023-04-25T11:02:51;17.50;75.30
42979;DHT22;28616;44.746;19.678;2023-04-25T11:07:52;17.40;70.40
42979;DHT22;28616;44.746;19.678;2023-04-25T11:10:20;18.00;71.40
42979;DHT22;28616;44.746;19.678;2023-04-25T11:12:46;19.00;72.10
42979;DHT22;28616;44.746;19.678;2023-04-25T11:15:13;18.10;66.10
42979;DHT22;28616;44.746;19.678;2023-04-25T11:17:39;18.30;69.10
42979;DHT22;28616;44.746;19.678;2023-04-25T11:20:07;18.00;66.50
42979;DHT22;28616;44.746;19.678;2023-04-25T11:22:40;17.80;68.70
42979;DHT22;28616;44.746;19.678;2023-04-25T11:25:08;17.70;71.10
42979;DHT22;28616;44.746;19.678;2023-04-25T11:27:58;17.30;67.70
42979;DHT22;28616;44.746;19.678;2023-04-25T11:30:24;17.40;68.00
42979;DHT22;28616;44.746;19.678;2023-04-25T11:32:50;18.40;70.00
42979;DHT22;28616;44.746;19.678;2023-04-25T11:35:21;19.20;65.80
42979;DHT22;28616;44.746;19.678;2023-04-25T11:37:48;19.20;63.00
42979;DHT22;28616;44.746;19.678;2023-04-25T11:40:15;19.30;61.90
42979;DHT22;28616;44.746;19.678;2023-04-25T11:42:45;19.50;62.50
42979;DHT22;28616;44.746;19.678;2023-04-25T11:47:38;20.50;73.00
42979;DHT22;28616;44.746;19.678;2023-04-25T11:50:06;19.90;60.30
42979;DHT22;28616;44.746;19.678;2023-04-25T11:52:50;20.70;77.60
42979;DHT22;28616;44.746;19.678;2023-04-25T11:57:46;21.00;95.50
42979;DHT22;28616;44.746;19.678;2023-04-25T12:00:18;21.30;56.90
42979;DHT22;28616;44.746;19.678;2023-04-25T12:02:56;20.80;53.00
42979;DHT22;28616;44.746;19.678;2023-04-25T12:05:27;20.40;54.50
42979;DHT22;28616;44.746;19.678;2023-04-25T12:07:54;20.00;54.00
42979;DHT22;28616;44.746;19.678;2023-04-25T12:10:20;20.20;56.60
42979;DHT22;28616;44.746;19.678;2023-04-25T12:12:47;20.00;54.10
42979;DHT22;28616;44.746;19.678;2023-04-25T12:15:22;19.80;53.60
42979;DHT22;28616;44.746;19.678;2023-04-25T12:17:50;19.60;55.40
42979;DHT22;28616;44.746;19.678;2023-04-25T12:20:20;19.70;56.00
42979;DHT22;28616;44.746;19.678;2023-04-25T12:22:50;19.60;56.10
42979;DHT22;28616;44.746;19.678;2023-04-25T12:25:39;20.10;54.10
42979;DHT22;28616;44.746;19.678;2023-04-25T12:28:16;19.80;54.40
42979;DHT22;28616;44.746;19.678;2023-04-25T12:30:54;19.80;54.10
42979;DHT22;28616;44.746;19.678;2023-04-25T12:33:21;20.30;53.50
42979;DHT22;28616;44.746;19.678;2023-04-25T12:35:47;20.20;50.30
42979;DHT22;28616;44.746;19.678;2023-04-25T12:38:40;20.40;49.70
42979;DHT22;28616;44.746;19.678;2023-04-25T12:41:07;20.40;50.00
42979;DHT22;28616;44.746;19.678;2023-04-25T12:43:33;20.30;47.20
42979;DHT22;28616;44.746;19.678;2023-04-25T12:50:51;21.10;45.20
42979;DHT22;28616;44.746;19.678;2023-04-25T12:53:23;21.40;46.20
42979;DHT22;28616;44.746;19.678;2023-04-25T12:55:51;21.40;47.60
42979;DHT22;28616;44.746;19.678;2023-04-25T12:58:18;21.70;86.00
42979;DHT22;28616;44.746;19.678;2023-04-25T13:00:45;21.40;43.20
42979;DHT22;28616;44.746;19.678;2023-04-25T13:03:11;21.00;46.90
42979;DHT22;28616;44.746;19.678;2023-04-25T13:08:04;21.30;46.70
42979;DHT22;28616;44.746;19.678;2023-04-25T13:12:56;21.70;92.30
42979;DHT22;28616;44.746;19.678;2023-04-25T13:15:22;21.30;45.70
42979;DHT22;28616;44.746;19.678;2023-04-25T13:17:48;21.40;46.20
42979;DHT22;28616;44.746;19.678;2023-04-25T13:20:14;21.10;47.20
42979;DHT22;28616;44.746;19.678;2023-04-25T13:22:42;20.20;47.30
42979;DHT22;28616;44.746;19.678;2023-04-25T13:25:11;20.00;49.00
42979;DHT22;28616;44.746;19.678;2023-04-25T13:27:37;19.30;47.40
42979;DHT22;28616;44.746;19.678;2023-04-25T13:31:26;19.70;47.70
42979;DHT22;28616;44.746;19.678;2023-04-25T13:33:53;20.10;47.00
42979;DHT22;28616;44.746;19.678;2023-04-25T13:36:19;20.30;46.30
42979;DHT22;28616;44.746;19.678;2023-04-25T13:38:45;20.90;47.60
42979;DHT22;28616;44.746;19.678;2023-04-25T13:41:12;21.10;46.80
42979;DHT22;28616;44.746;19.678;2023-04-25T13:43:43;21.20;46.30
42979;DHT22;28616;44.746;19.678;2023-04-25T13:46:09;20.70;45.20
42979;DHT22;28616;44.746;19.678;2023-04-25T13:48:35;20.10;48.30
42979;DHT22;28616;44.746;19.678;2023-04-25T13:51:01;20.20;50.10
42979;DHT22;28616;44.746;19.678;2023-04-25T13:53:27;20.10;48.80
42979;DHT22;28616;44.746;19.678;2023-04-25T13:55:52;19.60;48.50
42979;DHT22;28616;44.746;19.678;2023-04-25T13:58:19;19.20;49.90
42979;DHT22;28616;44.746;19.678;2023-04-25T14:00:45;19.00;49.90
42979;DHT22;28616;44.746;19.678;2023-04-25T14:03:12;18.80;51.50
42979;DHT22;28616;44.746;19.678;2023-04-25T14:05:37;18.40;49.50
42979;DHT22;28616;44.746;19.678;2023-04-25T14:08:06;18.20;51.50
42979;DHT22;28616;44.746;19.678;2023-04-25T14:10:34;18.30;53.30
42979;DHT22;28616;44.746;19.678;2023-04-25T14:13:00;18.10;52.50
42979;DHT22;28616;44.746;19.678;2023-04-25T14:15:26;18.10;52.20
42979;DHT22;28616;44.746;19.678;2023-04-25T14:17:52;18.10;51.20
42979;DHT22;28616;44.746;19.678;2023-04-25T14:20:18;18.10;51.70
42979;DHT22;28616;44.746;19.678;2023-04-25T14:22:46;18.20;53.30
42979;DHT22;28616;44.746;19.678;2023-04-25T14:25:12;18.10;53.00
42979;DHT22;28616;44.746;19.678;2023-04-25T14:27:38;18.00;53.90
42979;DHT22;28616;44.746;19.678;2023-04-25T14:30:04;17.90;54.70
42979;DHT22;28616;44.746;19.678;2023-04-25T14:32:30;18.30;57.00
42979;DHT22;28616;44.746;19.678;2023-04-25T14:34:57;18.40;55.50
42979;DHT22;28616;44.746;19.678;2023-04-25T14:37:23;18.60;55.90
42979;DHT22;28616;44.746;19.678;2023-04-25T14:39:49;19.30;53.80
42979;DHT22;28616;44.746;19.678;2023-04-25T14:42:14;19.30;52.60
42979;DHT22;28616;44.746;19.678;2023-04-25T14:44:40;19.70;52.60
42979;DHT22;28616;44.746;19.678;2023-04-25T14:47:06;19.70;51.10
42979;DHT22;28616;44.746;19.678;2023-04-25T14:49:32;19.70;48.70
42979;DHT22;28616;44.746;19.678;2023-04-25T14:51:58;19.80;48.60
42979;DHT22;28616;44.746;19.678;2023-04-25T14:54:24;19.90;47.50
42979;DHT22;28616;44.746;19.678;2023-04-25T14:56:50;19.80;47.40
42979;DHT22;28616;44.746;19.678;2023-04-25T14:59:16;20.10;48.60
42979;DHT22;28616;44.746;19.678;2023-04-25T15:01:42;20.30;47.50
42979;DHT22;28616;44.746;19.678;2023-04-25T15:06:36;20.40;46.00
42979;DHT22;28616;44.746;19.678;2023-04-25T15:09:01;20.20;44.90
42979;DHT22;28616;44.746;19.678;2023-04-25T15:11:27;20.00;45.90
42979;DHT22;28616;44.746;19.678;2023-04-25T15:13:53;19.80;46.20
42979;DHT22;28616;44.746;19.678;2023-04-25T15:16:20;19.30;46.60
42979;DHT22;28616;44.746;19.678;2023-04-25T15:18:45;18.60;48.50
42979;DHT22;28616;44.746;19.678;2023-04-25T15:21:11;18.10;49.90
42979;DHT22;28616;44.746;19.678;2023-04-25T15:23:37;17.40;49.10
42979;DHT22;28616;44.746;19.678;2023-04-25T15:26:03;17.40;49.10
42979;DHT22;28616;44.746;19.678;2023-04-25T15:28:29;17.40;50.10
42979;DHT22;28616;44.746;19.678;2023-04-25T15:30:56;17.20;47.10
42979;DHT22;28616;44.746;19.678;2023-04-25T15:33:22;17.00;47.70
42979;DHT22;28616;44.746;19.678;2023-04-25T15:35:48;16.90;48.50
42979;DHT22;28616;44.746;19.678;2023-04-25T15:38:14;16.90;49.60
42979;DHT22;28616;44.746;19.678;2023-04-25T15:40:40;16.80;49.40
42979;DHT22;28616;44.746;19.678;2023-04-25T15:43:06;16.70;49.90
42979;DHT22;28616;44.746;19.678;2023-04-25T15:45:32;16.60;49.70
42979;DHT22;28616;44.746;19.678;2023-04-25T15:47:58;16.60;50.00
42979;DHT22;28616;44.746;19.678;2023-04-25T15:50:24;16.50;49.70
42979;DHT22;28616;44.746;19.678;2023-04-25T15:52:50;16.40;50.20
42979;DHT22;28616;44.746;19.678;2023-04-25T15:55:18;16.50;50.80